createdAt,value
2022-08-09T00:06:19.335Z,3.10
2022-08-09T00:15:57.553Z,3.00
2022-08-09T00:25:33.208Z,2.60
2022-08-09T00:35:43.402Z,2.90
2022-08-09T00:45:34.740Z,2.70
2022-08-09T00:56:05.741Z,2.60
2022-08-09T01:05:53.481Z,2.70
2022-08-09T01:15:33.101Z,2.60
2022-08-09T01:25:33.420Z,2.80
2022-08-09T01:35:38.337Z,2.90
2022-08-09T01:45:33.096Z,3.00
2022-08-09T01:55:33.090Z,3.10
2022-08-09T02:05:37.643Z,2.80
2022-08-09T02:15:48.984Z,2.70
2022-08-09T02:25:41.819Z,2.20
2022-08-09T02:36:02.025Z,2.40
2022-08-09T02:45:33.243Z,2.00
2022-08-09T02:55:46.346Z,2.20
2022-08-09T03:05:34.370Z,2.00
2022-08-09T03:15:40.656Z,2.10
2022-08-09T03:25:59.366Z,2.20
2022-08-09T03:36:11.887Z,2.10
2022-08-09T03:46:04.813Z,2.20
2022-08-09T03:55:36.185Z,2.30
2022-08-09T04:05:33.153Z,2.70
2022-08-09T04:16:18.613Z,3.00
2022-08-09T04:25:33.162Z,2.90
2022-08-09T04:35:33.157Z,3.00
2022-08-09T04:45:36.097Z,3.00
2022-08-09T04:55:41.610Z,2.80
2022-08-09T05:05:52.062Z,3.00
2022-08-09T05:15:38.431Z,3.10
2022-08-09T05:25:33.186Z,3.20
2022-08-09T05:35:33.188Z,3.50
2022-08-09T05:45:43.561Z,2.90
2022-08-09T05:55:33.191Z,3.20
2022-08-09T06:05:57.072Z,3.30
2022-08-09T06:15:33.214Z,3.50
2022-08-09T06:25:33.221Z,3.70
2022-08-09T06:35:35.878Z,3.90
2022-08-09T06:46:05.973Z,3.60
2022-08-09T07:05:58.031Z,3.30
2022-08-09T07:16:35.205Z,3.40
2022-08-09T07:25:33.240Z,3.50
2022-08-09T07:35:39.862Z,4.00
2022-08-09T07:45:39.404Z,4.00
2022-08-09T07:55:41.365Z,4.00
2022-08-09T08:05:53.634Z,4.20
2022-08-09T08:15:35.603Z,4.90
2022-08-09T08:25:43.920Z,4.40
2022-08-09T08:35:53.198Z,4.30
2022-08-09T08:45:37.405Z,3.40
2022-08-09T08:55:33.284Z,3.60
2022-08-09T09:06:00.810Z,3.00
2022-08-09T09:15:33.288Z,3.10
2022-08-09T09:26:03.880Z,3.20
2022-08-09T09:35:33.321Z,2.90
2022-08-09T09:45:56.450Z,2.60
2022-08-09T09:55:33.631Z,2.50
2022-08-09T10:06:03.330Z,1.80
2022-08-09T10:16:09.187Z,1.70
2022-08-09T10:25:34.843Z,2.00
2022-08-09T10:35:33.315Z,2.30
2022-08-09T10:45:35.656Z,2.50
2022-08-09T10:55:35.815Z,2.80
2022-08-09T11:05:33.394Z,3.20
2022-08-09T11:15:34.107Z,3.30
2022-08-09T11:25:47.624Z,3.60
2022-08-09T11:35:35.222Z,3.30
2022-08-09T11:45:42.033Z,2.90
2022-08-09T11:55:51.577Z,2.70
2022-08-09T12:05:37.245Z,3.10
2022-08-09T12:15:49.097Z,2.70
2022-08-09T12:25:37.592Z,2.70
2022-08-09T12:35:40.029Z,2.60
2022-08-09T12:45:38.298Z,2.80
2022-08-09T12:56:11.387Z,3.10
2022-08-09T13:05:50.856Z,3.30
2022-08-09T13:25:34.853Z,2.40
2022-08-09T13:35:34.738Z,2.70
2022-08-09T13:46:43.633Z,2.60
2022-08-09T13:55:33.426Z,2.70
2022-08-09T14:05:59.816Z,2.50
2022-08-09T14:16:09.834Z,2.40
2022-08-09T14:25:42.687Z,2.60
2022-08-09T14:35:51.964Z,2.70
2022-08-09T14:46:54.449Z,3.20
2022-08-09T14:55:33.439Z,3.30
2022-08-09T15:05:33.436Z,2.80
2022-08-09T15:15:34.378Z,3.40
2022-08-09T15:25:39.201Z,3.00
2022-08-09T15:35:43.912Z,3.10
2022-08-09T15:46:08.192Z,3.60
2022-08-09T15:55:34.514Z,3.20
2022-08-09T16:05:46.985Z,3.00
2022-08-09T16:16:11.228Z,2.90
2022-08-09T16:25:40.210Z,2.70
2022-08-09T16:35:57.389Z,2.80
2022-08-09T16:45:33.534Z,2.60
2022-08-09T16:55:58.413Z,2.10
2022-08-09T17:06:08.144Z,1.90
2022-08-09T17:16:00.439Z,3.00
2022-08-09T17:25:33.643Z,2.40
2022-08-09T17:35:33.518Z,2.40
2022-08-09T17:45:37.665Z,2.40
2022-08-09T17:55:47.195Z,2.60
2022-08-09T18:05:43.380Z,2.80
2022-08-09T18:25:50.890Z,2.50
2022-08-09T18:35:59.404Z,2.50
2022-08-09T18:46:49.612Z,2.90
2022-08-09T18:55:56.243Z,4.00
2022-08-09T19:06:01.999Z,3.20
2022-08-09T19:15:33.633Z,3.40
2022-08-09T19:26:01.028Z,3.30
2022-08-09T19:35:57.974Z,3.20
2022-08-09T19:45:40.257Z,3.90
2022-08-09T19:55:53.119Z,5.10
2022-08-09T20:05:46.562Z,3.40
2022-08-09T20:16:37.094Z,3.10
2022-08-09T20:25:51.292Z,2.30
2022-08-09T20:35:33.604Z,2.80
2022-08-09T20:46:01.406Z,2.80
2022-08-09T20:55:47.499Z,2.60
2022-08-09T21:05:52.140Z,3.30
2022-08-09T21:15:34.049Z,3.50
2022-08-09T21:25:38.140Z,2.70
2022-08-09T21:35:40.616Z,2.90
2022-08-09T21:45:38.970Z,2.80
2022-08-09T21:55:34.127Z,2.90
2022-08-09T22:05:37.308Z,2.90
2022-08-09T22:15:35.104Z,3.00
2022-08-09T22:26:05.463Z,2.90
2022-08-09T22:36:01.624Z,2.80
2022-08-09T22:48:13.940Z,3.10
2022-08-09T22:56:06.323Z,2.70
2022-08-09T23:05:33.658Z,2.80
2022-08-09T23:15:33.811Z,2.60
2022-08-09T23:25:33.792Z,2.70
2022-08-09T23:36:06.431Z,2.70
2022-08-09T23:45:36.863Z,2.90
2022-08-09T23:55:34.702Z,3.00
